Linton-on-ouse, United Kingdom
Current Conditions -  °F | °C
As of 1:50 PM on Friday 24 Oct 2014 (Local Time) from EGXU Reporting Station
Broken Clouds Broken Clouds  
Wind Chill: 57°   Ceiling: 5000
Heat Index: 57°   Visibility: 6mi
Dew Point: 48°   Wind: 8mph
Humidity: 72%   Direction: 260°W
Pressure: 29.83"   Gusts: NA
Location:  54.05°N, 1.25°W
Report Text: EGXU 241250Z 26007KT 9999 FEW022 BKN050 14/09 Q1010 BLU NOSIG
Loading
Personal Weather Stations






























Interactive Weather Map
Tropical Storm Tracking
New forecast layout! Learn more

10-Day Weather Forecast

Advertisements
Track Severe Weather on mobile